createdAt,value
2019-01-06T00:01:53.516Z,0.60
2019-01-06T00:04:29.482Z,0.77
2019-01-06T00:07:05.137Z,0.80
2019-01-06T00:09:53.097Z,0.33
2019-01-06T00:12:23.174Z,0.50
2019-01-06T00:15:09.151Z,0.77
2019-01-06T00:17:53.750Z,0.50
2019-01-06T00:20:39.737Z,0.63
2019-01-06T00:23:15.410Z,0.27
2019-01-06T00:25:51.172Z,0.40
2019-01-06T00:28:21.211Z,0.40
2019-01-06T00:31:03.129Z,0.43
2019-01-06T00:33:33.253Z,0.33
2019-01-06T00:36:21.215Z,0.30
2019-01-06T00:39:02.780Z,0.60
2019-01-06T00:41:44.373Z,1.13
2019-01-06T00:44:14.490Z,0.50
2019-01-06T00:46:47.574Z,0.33
2019-01-06T00:49:20.115Z,2.30
2019-01-06T00:52:04.966Z,0.30
2019-01-06T00:54:35.050Z,0.60
2019-01-06T00:57:07.787Z,0.40
2019-01-06T00:59:37.860Z,0.40
2019-01-06T01:02:10.575Z,0.37
2019-01-06T01:04:43.095Z,0.37
2019-01-06T01:07:21.665Z,0.30
2019-01-06T01:10:07.510Z,0.50
2019-01-06T01:12:53.846Z,0.40
2019-01-06T01:15:29.387Z,0.40
2019-01-06T01:18:01.924Z,0.30
2019-01-06T01:20:46.934Z,0.50
2019-01-06T01:23:17.130Z,1.27
2019-01-06T01:26:02.895Z,0.70
2019-01-06T01:28:35.524Z,0.63
2019-01-06T01:31:20.220Z,0.20
2019-01-06T01:33:50.295Z,0.30
2019-01-06T01:36:20.341Z,1.10
2019-01-06T01:39:06.534Z,0.53
2019-01-06T01:41:39.441Z,0.50
2019-01-06T01:44:25.269Z,0.50
2019-01-06T01:46:58.171Z,0.30
2019-01-06T01:49:44.024Z,0.90
2019-01-06T01:52:16.711Z,1.80
2019-01-06T01:55:02.523Z,0.70
2019-01-06T01:57:32.589Z,1.17
2019-01-06T02:00:05.149Z,1.80
2019-01-06T02:02:37.867Z,0.60
2019-01-06T02:05:13.844Z,0.50
2019-01-06T02:07:59.979Z,0.50
2019-01-06T02:10:48.110Z,0.60
2019-01-06T02:13:24.186Z,0.80
2019-01-06T02:16:08.901Z,0.53
2019-01-06T02:18:41.406Z,0.70
2019-01-06T02:21:27.437Z,0.60
2019-01-06T02:23:57.494Z,1.17
2019-01-06T02:26:36.130Z,0.67
2019-01-06T02:29:06.260Z,1.17
2019-01-06T02:31:41.814Z,0.70
2019-01-06T02:34:27.797Z,0.63
2019-01-06T02:36:57.877Z,0.50
2019-01-06T02:39:45.955Z,0.80
2019-01-06T02:42:24.866Z,0.53
2019-01-06T02:44:55.050Z,0.63
2019-01-06T02:47:31.210Z,0.50
2019-01-06T02:50:15.920Z,0.60
2019-01-06T02:52:46.104Z,0.40
2019-01-06T02:55:25.241Z,0.40
2019-01-06T02:58:11.406Z,0.67
2019-01-06T03:00:57.667Z,0.50
2019-01-06T03:03:27.904Z,1.07
2019-01-06T03:06:03.456Z,0.30
2019-01-06T03:08:36.425Z,0.40
2019-01-06T03:11:22.496Z,0.50
2019-01-06T03:14:01.099Z,0.30
2019-01-06T03:16:45.794Z,0.40
2019-01-06T03:19:15.895Z,1.63
2019-01-06T03:22:01.885Z,0.60
2019-01-06T03:24:47.700Z,0.57
2019-01-06T03:27:35.685Z,0.93
2019-01-06T03:30:09.817Z,0.50
2019-01-06T03:32:42.483Z,0.63
2019-01-06T03:35:15.145Z,1.40
2019-01-06T03:37:48.015Z,0.43
2019-01-06T03:40:29.608Z,0.50
2019-01-06T03:43:11.731Z,1.50
2019-01-06T03:45:59.369Z,2.83
2019-01-06T03:48:47.385Z,0.83
2019-01-06T03:51:17.475Z,0.60
2019-01-06T03:53:50.367Z,0.30
2019-01-06T03:56:36.321Z,0.50
2019-01-06T03:59:15.255Z,0.37
2019-01-06T04:01:47.731Z,0.30
2019-01-06T04:04:23.532Z,0.40
2019-01-06T04:07:09.724Z,0.63
2019-01-06T04:09:51.689Z,0.30
2019-01-06T04:12:27.235Z,0.30
2019-01-06T04:15:13.024Z,0.40
2019-01-06T04:17:51.822Z,1.03
2019-01-06T04:20:37.864Z,0.90
2019-01-06T04:23:13.827Z,0.60
2019-01-06T04:25:46.681Z,0.70
2019-01-06T04:28:31.365Z,0.40
2019-01-06T04:31:13.287Z,0.60
2019-01-06T04:33:43.460Z,0.33
2019-01-06T04:36:15.939Z,0.30
2019-01-06T04:38:48.584Z,0.47
2019-01-06T04:41:36.763Z,0.40
2019-01-06T04:44:23.000Z,0.47
2019-01-06T04:46:58.683Z,0.47
2019-01-06T04:49:37.450Z,0.50
2019-01-06T04:52:22.076Z,0.87
2019-01-06T04:54:52.127Z,0.77
2019-01-06T04:57:30.847Z,0.80
2019-01-06T05:00:03.360Z,0.10
2019-01-06T05:02:42.307Z,0.57
2019-01-06T05:05:15.191Z,0.73
2019-01-06T05:07:48.052Z,0.57
2019-01-06T05:10:26.957Z,0.50
2019-01-06T05:12:59.676Z,0.40
2019-01-06T05:15:38.454Z,0.63
2019-01-06T05:18:08.570Z,0.53
2019-01-06T05:20:41.519Z,0.70
2019-01-06T05:23:11.571Z,0.83
2019-01-06T05:25:41.766Z,0.47
2019-01-06T05:28:23.837Z,0.80
2019-01-06T05:30:56.822Z,0.97
2019-01-06T05:33:29.323Z,0.90
2019-01-06T05:36:05.255Z,0.97
2019-01-06T05:38:51.481Z,0.53
2019-01-06T05:41:37.667Z,0.70
2019-01-06T05:44:10.187Z,1.57
2019-01-06T05:46:48.878Z,0.87
2019-01-06T05:49:27.734Z,0.50
2019-01-06T05:52:15.746Z,1.00
2019-01-06T05:55:02.084Z,1.97
2019-01-06T05:57:32.209Z,0.80
2019-01-06T06:00:10.958Z,0.63
2019-01-06T06:02:41.020Z,0.97
2019-01-06T06:05:11.104Z,0.67
2019-01-06T06:07:41.161Z,1.07
2019-01-06T06:10:17.164Z,2.23
2019-01-06T06:12:53.196Z,1.10
2019-01-06T06:15:35.176Z,1.43
2019-01-06T06:18:20.130Z,0.60
2019-01-06T06:20:55.815Z,1.10
2019-01-06T06:23:25.880Z,0.83
2019-01-06T06:26:04.544Z,1.17
2019-01-06T06:28:50.626Z,0.50
2019-01-06T06:31:36.774Z,1.17
2019-01-06T06:34:21.391Z,1.23
2019-01-06T06:36:56.974Z,0.50
2019-01-06T06:39:35.667Z,1.77
2019-01-06T06:42:21.541Z,0.53
2019-01-06T06:45:03.554Z,0.50
2019-01-06T06:47:48.144Z,0.40
2019-01-06T06:50:21.084Z,0.30
2019-01-06T06:52:53.724Z,0.40
2019-01-06T06:55:23.760Z,0.70
2019-01-06T06:58:16.142Z,0.37
2019-01-06T07:00:52.511Z,0.43
2019-01-06T07:03:31.755Z,0.80
2019-01-06T07:06:04.780Z,0.30
2019-01-06T07:08:34.849Z,0.50
2019-01-06T07:11:04.977Z,0.47
2019-01-06T07:13:37.446Z,0.60
2019-01-06T07:16:11.241Z,0.90
2019-01-06T07:18:41.307Z,0.70
2019-01-06T07:21:14.143Z,1.20
2019-01-06T07:24:01.965Z,0.60
2019-01-06T07:26:32.132Z,0.40
2019-01-06T07:29:16.788Z,2.10
2019-01-06T07:31:46.875Z,0.30
2019-01-06T07:34:33.045Z,0.60
2019-01-06T07:37:08.628Z,0.70
2019-01-06T07:39:54.816Z,0.83
2019-01-06T07:42:24.914Z,0.67
2019-01-06T07:44:55.145Z,0.80
2019-01-06T07:47:25.272Z,0.63
2019-01-06T07:50:09.869Z,0.87
2019-01-06T07:52:39.964Z,0.40
2019-01-06T07:55:16.149Z,0.93
2019-01-06T07:57:46.225Z,0.97
2019-01-06T08:00:16.300Z,1.57
2019-01-06T08:02:58.332Z,1.10
2019-01-06T08:05:34.131Z,1.13
2019-01-06T08:08:20.405Z,0.80
2019-01-06T08:10:58.981Z,0.90
2019-01-06T08:13:29.036Z,1.37
2019-01-06T08:15:59.088Z,1.13
2019-01-06T08:18:45.018Z,1.40
2019-01-06T08:21:31.060Z,1.53
2019-01-06T08:24:17.139Z,1.40
2019-01-06T08:26:49.764Z,1.27
2019-01-06T08:29:34.690Z,1.63
2019-01-06T08:32:07.380Z,0.73
2019-01-06T08:34:46.074Z,0.60
2019-01-06T08:37:30.915Z,1.17
2019-01-06T08:40:06.869Z,1.70
2019-01-06T08:42:48.881Z,1.60
2019-01-06T08:45:30.535Z,1.70
2019-01-06T08:48:03.186Z,1.57
2019-01-06T08:50:36.289Z,0.70
2019-01-06T08:53:14.921Z,0.63
2019-01-06T08:56:00.869Z,0.70
2019-01-06T08:58:33.395Z,0.60
2019-01-06T09:01:09.136Z,1.20
2019-01-06T09:03:44.801Z,0.60
2019-01-06T09:06:32.497Z,0.97
2019-01-06T09:09:05.309Z,0.80
2019-01-06T09:11:53.273Z,0.90
2019-01-06T09:14:35.305Z,1.37
2019-01-06T09:17:08.031Z,2.00
2019-01-06T09:19:54.021Z,1.47
2019-01-06T09:22:24.111Z,0.80
2019-01-06T09:24:54.191Z,1.10
2019-01-06T09:27:24.376Z,1.10
2019-01-06T09:30:00.347Z,1.63
2019-01-06T09:32:46.479Z,0.60
2019-01-06T09:35:18.950Z,1.40
2019-01-06T09:38:05.400Z,1.77
2019-01-06T09:40:44.151Z,1.33
2019-01-06T09:43:14.249Z,5.47
2019-01-06T09:45:44.367Z,2.83
2019-01-06T09:48:29.384Z,1.50
2019-01-06T09:51:15.542Z,3.83
2019-01-06T09:53:57.423Z,1.40
2019-01-06T09:56:36.400Z,3.00
2019-01-06T09:59:22.229Z,3.90
2019-01-06T10:02:08.181Z,8.70
2019-01-06T10:04:46.945Z,1.20
2019-01-06T10:07:31.877Z,2.03
2019-01-06T10:10:01.960Z,5.30
2019-01-06T10:12:34.626Z,2.43
2019-01-06T10:15:13.316Z,4.20
2019-01-06T10:17:59.557Z,3.60
2019-01-06T10:20:32.514Z,5.47
2019-01-06T10:23:02.595Z,1.70
2019-01-06T10:25:48.959Z,2.27
2019-01-06T10:28:33.911Z,4.47
2019-01-06T10:31:19.714Z,8.70
2019-01-06T10:34:05.901Z,9.33
2019-01-06T10:36:51.786Z,8.03
2019-01-06T10:39:21.842Z,2.43
2019-01-06T10:41:54.887Z,2.17
2019-01-06T10:44:39.695Z,1.63
2019-01-06T10:47:12.334Z,1.77
2019-01-06T10:49:44.991Z,1.67
2019-01-06T10:52:17.857Z,1.70
2019-01-06T10:55:04.262Z,1.87
2019-01-06T10:57:49.009Z,2.13
2019-01-06T11:00:21.650Z,0.60
2019-01-06T11:03:07.554Z,0.93
2019-01-06T11:05:49.259Z,1.70
2019-01-06T11:08:19.332Z,1.13
2019-01-06T11:11:05.605Z,2.93
2019-01-06T11:13:35.765Z,0.70
2019-01-06T11:16:21.695Z,2.83
2019-01-06T11:19:03.230Z,1.17
2019-01-06T11:21:49.251Z,1.27
2019-01-06T11:24:35.301Z,0.77
2019-01-06T11:27:21.080Z,1.07
2019-01-06T11:29:54.255Z,1.63
2019-01-06T11:32:32.785Z,0.33
2019-01-06T11:35:05.372Z,1.10
2019-01-06T11:37:51.340Z,1.10
2019-01-06T11:40:30.273Z,1.50
2019-01-06T11:43:06.430Z,1.23
2019-01-06T11:45:54.286Z,1.43
2019-01-06T11:48:33.369Z,1.30
2019-01-06T11:51:09.118Z,0.70
2019-01-06T11:53:47.951Z,0.73
2019-01-06T11:56:34.241Z,1.33
2019-01-06T11:59:13.254Z,1.20
2019-01-06T12:01:43.361Z,1.30
2019-01-06T12:04:16.171Z,1.73
2019-01-06T12:06:46.305Z,0.53
2019-01-06T12:09:18.796Z,1.20
2019-01-06T12:11:48.896Z,0.70
2019-01-06T12:14:27.516Z,1.20
2019-01-06T12:17:00.199Z,1.10
2019-01-06T12:19:41.854Z,2.20
2019-01-06T12:22:11.930Z,0.80
2019-01-06T12:24:42.107Z,1.00
2019-01-06T12:27:17.937Z,1.10
2019-01-06T12:33:51.353Z,0.70
2019-01-06T12:36:36.344Z,0.87
2019-01-06T12:39:23.165Z,1.00
2019-01-06T12:42:09.051Z,2.63
2019-01-06T12:44:45.074Z,4.83
2019-01-06T12:47:15.270Z,3.93
2019-01-06T12:49:54.238Z,1.73
2019-01-06T12:52:32.890Z,1.20
2019-01-06T12:55:08.556Z,1.00
2019-01-06T12:57:54.915Z,1.33
2019-01-06T13:00:39.861Z,1.03
2019-01-06T13:03:25.759Z,1.67
2019-01-06T13:05:55.846Z,0.83
2019-01-06T13:08:42.306Z,1.43
2019-01-06T13:11:28.141Z,1.03
2019-01-06T13:13:58.225Z,0.60
2019-01-06T13:16:30.886Z,0.47
2019-01-06T13:19:16.920Z,1.30
2019-01-06T13:22:02.946Z,0.67
2019-01-06T13:24:50.660Z,0.87
2019-01-06T13:27:23.499Z,1.03
2019-01-06T13:29:56.143Z,1.27
2019-01-06T13:32:40.907Z,1.73
2019-01-06T13:35:16.541Z,1.00
2019-01-06T13:37:52.194Z,2.10
2019-01-06T13:40:30.977Z,1.00
2019-01-06T13:43:15.719Z,1.43
2019-01-06T13:45:54.329Z,1.10
2019-01-06T13:48:36.264Z,0.97
2019-01-06T13:51:24.121Z,0.80
2019-01-06T13:53:59.824Z,1.53
2019-01-06T13:56:45.751Z,1.03
2019-01-06T13:59:21.510Z,1.20
2019-01-06T14:01:51.584Z,2.10
2019-01-06T14:04:21.760Z,3.20
2019-01-06T14:07:03.434Z,1.67
2019-01-06T14:09:51.421Z,2.27
2019-01-06T14:12:30.390Z,1.57
2019-01-06T14:15:16.466Z,2.23
2019-01-06T14:18:02.230Z,1.20
2019-01-06T14:20:48.064Z,2.57
2019-01-06T14:23:26.609Z,1.43
2019-01-06T14:26:12.542Z,2.90
2019-01-06T14:28:51.609Z,3.67
2019-01-06T14:31:37.641Z,3.20
2019-01-06T14:34:19.704Z,3.50
2019-01-06T14:36:49.815Z,3.73
2019-01-06T14:39:35.746Z,2.50
2019-01-06T14:42:21.911Z,2.33
2019-01-06T14:45:06.632Z,2.30
2019-01-06T14:47:45.295Z,1.60
2019-01-06T14:50:18.075Z,3.30
2019-01-06T14:52:50.689Z,2.70
2019-01-06T14:55:36.659Z,3.33
2019-01-06T14:58:12.465Z,2.17
2019-01-06T15:00:48.755Z,3.13
2019-01-06T15:03:21.375Z,3.70
2019-01-06T15:06:03.240Z,2.77
2019-01-06T15:08:36.018Z,4.10
2019-01-06T15:11:06.184Z,3.13
2019-01-06T15:13:36.385Z,5.17
2019-01-06T15:16:12.055Z,4.47
2019-01-06T15:18:42.126Z,5.47
2019-01-06T15:21:12.210Z,4.33
2019-01-06T15:24:00.287Z,3.77
2019-01-06T15:26:48.319Z,3.90
2019-01-06T15:29:34.198Z,6.97
2019-01-06T15:32:12.864Z,7.83
2019-01-06T15:34:55.004Z,6.90
2019-01-06T15:37:33.861Z,9.07
2019-01-06T15:40:15.455Z,16.03
2019-01-06T15:43:01.723Z,7.87
2019-01-06T15:45:47.620Z,11.33
2019-01-06T15:48:17.689Z,12.67
2019-01-06T15:50:56.686Z,13.47
2019-01-06T15:53:42.609Z,13.43
2019-01-06T15:56:28.756Z,14.70
2019-01-06T15:59:14.675Z,13.20
2019-01-06T16:01:53.490Z,13.63
2019-01-06T16:04:26.425Z,13.63
2019-01-06T16:06:58.954Z,13.03
2019-01-06T16:09:37.719Z,11.73
2019-01-06T16:12:19.316Z,12.77
2019-01-06T16:15:05.166Z,12.53
2019-01-06T16:17:47.044Z,13.77
2019-01-06T16:20:32.144Z,15.20
2019-01-06T16:23:18.129Z,15.50
2019-01-06T16:26:02.811Z,17.80
2019-01-06T16:28:35.364Z,15.57
2019-01-06T16:31:05.556Z,14.57
2019-01-06T16:33:53.796Z,16.43
2019-01-06T16:36:39.585Z,13.10
2019-01-06T16:39:18.260Z,20.63
2019-01-06T16:41:50.846Z,15.17
2019-01-06T16:44:20.952Z,17.90
2019-01-06T16:46:53.574Z,14.37
2019-01-06T16:49:41.693Z,21.93
2019-01-06T16:52:23.245Z,23.60
2019-01-06T16:55:05.220Z,22.23
2019-01-06T16:57:51.254Z,23.30
2019-01-06T17:00:26.991Z,22.77
2019-01-06T17:02:59.505Z,23.97
2019-01-06T17:05:32.226Z,24.20
2019-01-06T17:08:04.944Z,16.97
2019-01-06T17:10:50.748Z,20.13
2019-01-06T17:13:23.390Z,21.47
2019-01-06T17:16:05.438Z,19.27
2019-01-06T17:18:41.034Z,18.93
2019-01-06T17:21:16.615Z,22.50
2019-01-06T17:23:58.211Z,28.43
2019-01-06T17:26:28.419Z,20.90
2019-01-06T17:29:13.421Z,22.43
2019-01-06T17:31:58.607Z,20.33
2019-01-06T17:34:44.768Z,20.20
2019-01-06T17:37:26.356Z,21.77
2019-01-06T17:40:14.172Z,22.17
2019-01-06T17:43:00.389Z,21.10
2019-01-06T17:45:45.237Z,22.00
2019-01-06T17:48:26.831Z,18.30
2019-01-06T17:51:08.981Z,19.97
2019-01-06T17:53:41.634Z,16.90
2019-01-06T17:56:20.511Z,19.87
2019-01-06T17:58:59.089Z,18.03
2019-01-06T18:01:43.700Z,18.03
2019-01-06T18:04:13.966Z,16.27
2019-01-06T18:06:55.872Z,17.03
2019-01-06T18:09:32.062Z,16.20
2019-01-06T18:12:10.769Z,16.33
2019-01-06T18:14:56.725Z,14.17
2019-01-06T18:17:26.943Z,16.80
2019-01-06T18:20:13.016Z,13.83
2019-01-06T18:22:48.864Z,16.37
2019-01-06T18:25:19.095Z,13.53
2019-01-06T18:28:07.241Z,11.70
2019-01-06T18:30:49.206Z,12.60
2019-01-06T18:33:24.942Z,10.80
2019-01-06T18:36:03.455Z,8.00
2019-01-06T18:38:36.110Z,10.03
2019-01-06T18:41:06.182Z,10.03
2019-01-06T18:43:36.366Z,9.37
2019-01-06T18:46:06.534Z,7.07
2019-01-06T18:48:36.635Z,8.87
2019-01-06T18:51:24.718Z,8.30
2019-01-06T18:54:03.670Z,10.97
2019-01-06T18:56:33.770Z,7.43
2019-01-06T18:59:09.431Z,8.97
2019-01-06T19:01:45.246Z,7.90
2019-01-06T19:04:17.824Z,6.97
2019-01-06T19:06:53.519Z,5.00
2019-01-06T19:09:29.226Z,10.30
2019-01-06T19:12:14.165Z,7.17
2019-01-06T19:14:44.906Z,7.63
2019-01-06T19:17:30.869Z,7.80
2019-01-06T19:20:12.806Z,7.53
2019-01-06T19:22:48.675Z,9.83
2019-01-06T19:25:36.496Z,10.40
2019-01-06T19:28:30.175Z,10.47
2019-01-06T19:31:01.693Z,8.30
2019-01-06T19:33:34.475Z,10.43
2019-01-06T19:36:13.476Z,6.17
2019-01-06T19:38:53.712Z,7.70
2019-01-06T19:41:21.155Z,8.40
2019-01-06T19:44:07.190Z,8.33
2019-01-06T19:46:37.405Z,9.43
2019-01-06T19:49:23.508Z,7.37
2019-01-06T19:51:56.039Z,7.57
2019-01-06T19:54:28.846Z,5.10
2019-01-06T19:57:10.825Z,6.63
2019-01-06T19:59:49.405Z,6.90
2019-01-06T20:02:28.178Z,5.97
2019-01-06T20:05:01.030Z,4.87
2019-01-06T20:07:31.094Z,4.93
2019-01-06T20:10:03.669Z,4.37
2019-01-06T20:12:42.629Z,4.87
2019-01-06T20:15:15.345Z,5.70
2019-01-06T20:17:45.434Z,7.00
2019-01-06T20:20:24.140Z,6.37
2019-01-06T20:22:54.313Z,5.53
2019-01-06T20:25:24.556Z,3.57
2019-01-06T20:27:57.046Z,3.80
2019-01-06T20:30:27.151Z,4.53
2019-01-06T20:33:13.394Z,3.57
2019-01-06T20:35:49.126Z,3.33
2019-01-06T20:38:36.754Z,3.83
2019-01-06T20:41:21.494Z,4.77
2019-01-06T20:43:54.413Z,4.80
2019-01-06T20:46:40.445Z,6.13
2019-01-06T20:49:15.941Z,6.23
2019-01-06T20:52:00.815Z,5.90
2019-01-06T20:54:47.220Z,5.00
2019-01-06T20:57:33.085Z,6.20
2019-01-06T21:00:18.082Z,5.43
2019-01-06T21:03:02.906Z,7.03
2019-01-06T21:05:49.016Z,5.33
2019-01-06T21:08:21.606Z,4.83
2019-01-06T21:11:06.395Z,5.53
2019-01-06T21:13:52.281Z,4.90
2019-01-06T21:16:22.445Z,6.73
2019-01-06T21:18:52.630Z,7.20
2019-01-06T21:21:22.699Z,6.73
2019-01-06T21:24:04.688Z,6.93
2019-01-06T21:26:34.789Z,7.37
2019-01-06T21:29:16.437Z,8.53
2019-01-06T21:31:46.706Z,8.40
2019-01-06T21:34:16.849Z,9.30
2019-01-06T21:37:01.443Z,10.23
2019-01-06T21:39:34.379Z,16.83
2019-01-06T21:42:09.882Z,10.37
2019-01-06T21:44:55.888Z,12.80
2019-01-06T21:47:41.857Z,13.43
2019-01-06T21:50:11.979Z,14.30
2019-01-06T21:52:50.649Z,12.10
2019-01-06T21:55:35.514Z,16.50
2019-01-06T21:58:17.334Z,18.40
2019-01-06T22:00:53.417Z,17.70
2019-01-06T22:03:26.510Z,19.13
2019-01-06T22:06:12.559Z,18.90
2019-01-06T22:08:58.371Z,14.17
2019-01-06T22:11:44.124Z,13.60
2019-01-06T22:14:30.111Z,13.40
2019-01-06T22:17:18.182Z,17.00
2019-01-06T22:19:54.214Z,12.30
2019-01-06T22:22:42.070Z,13.93
2019-01-06T22:25:12.209Z,15.53
2019-01-06T22:27:50.966Z,11.37
2019-01-06T22:30:23.733Z,14.93
2019-01-06T22:32:59.554Z,18.10
2019-01-06T22:35:32.129Z,14.50
2019-01-06T22:38:16.958Z,13.27
2019-01-06T22:41:02.770Z,12.23
2019-01-06T22:43:50.439Z,12.23
2019-01-06T22:46:36.461Z,12.83
2019-01-06T22:49:22.721Z,13.33
2019-01-06T22:51:52.879Z,14.83
2019-01-06T22:54:39.279Z,16.50
2019-01-06T22:57:25.445Z,18.87
2019-01-06T23:00:01.205Z,17.97
2019-01-06T23:02:34.196Z,17.83
2019-01-06T23:05:13.115Z,16.87
2019-01-06T23:07:59.301Z,17.07
2019-01-06T23:10:29.649Z,20.20
2019-01-06T23:13:02.170Z,21.73
2019-01-06T23:15:37.930Z,22.83
2019-01-06T23:18:08.068Z,21.33
2019-01-06T23:20:40.914Z,21.20
2019-01-06T23:23:26.822Z,19.53
2019-01-06T23:26:12.835Z,23.40
2019-01-06T23:28:42.950Z,21.17
2019-01-06T23:31:13.162Z,22.90
2019-01-06T23:33:59.011Z,24.10
2019-01-06T23:36:44.170Z,23.37
2019-01-06T23:39:30.253Z,24.90
2019-01-06T23:42:11.893Z,20.37
2019-01-06T23:44:56.908Z,21.90
2019-01-06T23:47:35.771Z,23.37
2019-01-06T23:50:17.819Z,17.37
2019-01-06T23:52:50.594Z,15.50
2019-01-06T23:55:26.294Z,17.67
2019-01-06T23:57:58.901Z,16.40
